Time;durP1;ratioP1;P1;durP2;ratioP2;P2;SDS_P1;SDS_P2;PMS_P1;PMS_P2;Temp;Humidity;BMP_temperature;BMP_pressure;BME280_temperature;BME280_humidity;BME280_pressure;Samples;Min_cycle;Max_cycle;Signal;HPM_P1;HPM_P2
2022/05/31 00:01:32;;;;;;;1.63;1.53;;;12.70;99.90;;;;;;5027370;28;20298;-73
2022/05/31 00:04:00;;;;;;;1.70;1.60;;;12.70;99.90;;;;;;5026643;28;20595;-72
2022/05/31 00:06:27;;;;;;;1.60;1.50;;;12.60;99.90;;;;;;5041741;28;20209;-72
2022/05/31 00:08:53;;;;;;;1.87;1.23;;;12.60;99.90;;;;;;5046209;28;20269;-72
2022/05/31 00:11:21;;;;;;;1.40;1.30;;;12.60;99.90;;;;;;5046624;28;20794;-72
2022/05/31 00:13:48;;;;;;;1.63;1.03;;;12.60;99.90;;;;;;5035328;28;20235;-73
2022/05/31 00:16:14;;;;;;;1.63;1.20;;;12.60;99.90;;;;;;5026809;28;20232;-72
2022/05/31 00:18:41;;;;;;;1.67;1.57;;;12.50;99.90;;;;;;5043376;28;20208;-72
2022/05/31 00:21:11;;;;;;;1.57;1.20;;;12.40;99.90;;;;;;5043120;28;20275;-72
2022/05/31 00:23:40;;;;;;;1.33;1.23;;;12.50;99.90;;;;;;5035585;28;20208;-72
2022/05/31 00:26:07;;;;;;;1.30;1.20;;;12.50;99.90;;;;;;5046571;28;20208;-73
2022/05/31 00:28:34;;;;;;;1.63;1.10;;;12.60;99.90;;;;;;5047153;28;20216;-72
2022/05/31 00:31:04;;;;;;;1.23;1.23;;;12.60;99.90;;;;;;5046105;28;20199;-72
2022/05/31 00:33:30;;;;;;;2.43;1.37;;;12.60;99.90;;;;;;5028313;28;20663;-72
2022/05/31 00:35:57;;;;;;;1.10;1.10;;;12.60;99.90;;;;;;5026779;28;20229;-72
2022/05/31 00:38:25;;;;;;;1.37;1.27;;;12.60;99.90;;;;;;5026573;28;20671;-72
2022/05/31 00:40:52;;;;;;;1.17;1.03;;;12.60;99.90;;;;;;5048278;28;20301;-72
2022/05/31 00:43:22;;;;;;;2.13;1.30;;;12.60;99.90;;;;;;5033747;28;20848;-72
2022/05/31 00:46:06;;;;;;;1.13;1.13;;;12.60;99.90;;;;;;5030738;28;20283;-72
2022/05/31 00:48:36;;;;;;;1.20;1.10;;;12.60;99.90;;;;;;5045562;28;20666;-72
2022/05/31 00:51:08;;;;;;;1.03;0.90;;;12.50;99.90;;;;;;5050418;28;20204;-72
2022/05/31 00:53:40;;;;;;;2.73;1.43;;;12.50;99.90;;;;;;5049917;28;20208;-72
2022/05/31 00:56:13;;;;;;;1.00;1.00;;;12.60;99.90;;;;;;5050315;28;20230;-72
2022/05/31 00:58:44;;;;;;;1.67;1.03;;;12.60;99.90;;;;;;5050553;28;20197;-72
2022/05/31 01:01:15;;;;;;;1.73;1.30;;;12.60;99.90;;;;;;5047979;28;20192;-73
2022/05/31 01:03:43;;;;;;;1.90;1.17;;;12.60;99.90;;;;;;5030526;28;20196;-72
2022/05/31 01:06:11;;;;;;;1.10;0.87;;;12.60;99.90;;;;;;5030243;28;20687;-72
2022/05/31 01:08:44;;;;;;;1.37;1.27;;;12.60;99.90;;;;;;5029790;28;20691;-72
2022/05/31 01:11:13;;;;;;;1.23;1.13;;;12.50;99.90;;;;;;5030243;28;20197;-72
2022/05/31 01:13:40;;;;;;;1.30;1.13;;;12.50;99.90;;;;;;5040414;28;20211;-72
2022/05/31 01:16:10;;;;;;;2.13;1.10;;;12.50;99.90;;;;;;5029668;28;20276;-72
2022/05/31 01:18:38;;;;;;;1.07;1.07;;;12.40;99.90;;;;;;5041006;28;20331;-73
2022/05/31 01:21:07;;;;;;;1.17;1.07;;;12.40;99.90;;;;;;5038621;28;20258;-72
2022/05/31 01:23:40;;;;;;;2.00;1.30;;;12.40;99.90;;;;;;5036233;28;20216;-72
2022/05/31 01:26:15;;;;;;;2.57;1.20;;;12.40;99.90;;;;;;5029826;28;20207;-72
2022/05/31 01:28:54;;;;;;;1.40;1.30;;;12.40;99.90;;;;;;5029782;28;20203;-72
2022/05/31 01:31:26;;;;;;;0.87;0.87;;;12.50;99.90;;;;;;5029726;28;20243;-72
2022/05/31 01:33:58;;;;;;;1.07;1.07;;;12.50;99.90;;;;;;5029328;28;20647;-74
2022/05/31 01:36:33;;;;;;;3.10;1.10;;;12.50;99.90;;;;;;5042077;28;20220;-72
2022/05/31 01:39:03;;;;;;;1.40;1.30;;;12.60;99.90;;;;;;5049191;28;20192;-72
2022/05/31 01:41:35;;;;;;;3.87;1.40;;;12.50;99.90;;;;;;5048864;28;20232;-72
2022/05/31 01:44:06;;;;;;;1.80;1.00;;;12.50;99.90;;;;;;5048989;28;20212;-72
2022/05/31 01:46:34;;;;;;;1.70;1.30;;;12.50;99.90;;;;;;5049003;28;20907;-72
2022/05/31 01:49:06;;;;;;;1.47;1.20;;;12.50;99.90;;;;;;5029873;28;20952;-72
2022/05/31 01:51:34;;;;;;;0.90;0.90;;;12.50;99.90;;;;;;5028125;28;20266;-72
2022/05/31 01:54:01;;;;;;;0.87;0.87;;;12.50;99.90;;;;;;5028919;28;20209;-73
2022/05/31 01:56:28;;;;;;;1.00;0.90;;;12.50;99.90;;;;;;5043069;28;20651;-72
2022/05/31 01:58:56;;;;;;;1.47;1.40;;;12.50;99.90;;;;;;5049028;28;20649;-72
2022/05/31 02:01:24;;;;;;;1.17;1.13;;;12.50;99.90;;;;;;5048811;28;20254;-72
2022/05/31 02:03:50;;;;;;;2.63;1.03;;;12.40;99.90;;;;;;5048699;28;20214;-72
2022/05/31 02:06:25;;;;;;;1.30;1.20;;;12.40;99.90;;;;;;5048970;28;20262;-72
2022/05/31 02:08:53;;;;;;;1.50;1.30;;;12.40;99.90;;;;;;5028889;28;20200;-72
2022/05/31 02:11:20;;;;;;;1.77;1.27;;;12.30;99.90;;;;;;5029241;28;20212;-72
2022/05/31 02:13:48;;;;;;;1.50;1.50;;;12.30;99.90;;;;;;5029186;28;20263;-72
2022/05/31 02:16:15;;;;;;;2.23;1.27;;;12.30;99.90;;;;;;5028713;28;20233;-72
2022/05/31 02:21:35;;;;;;;1.30;1.20;;;12.20;99.90;;;;;;5040633;28;20212;-72
2022/05/31 02:24:04;;;;;;;1.40;1.30;;;12.20;99.90;;;;;;5048676;28;20330;-72
2022/05/31 02:26:31;;;;;;;1.73;1.43;;;12.30;99.90;;;;;;5048536;28;20196;-72
2022/05/31 02:28:57;;;;;;;1.20;1.13;;;12.20;99.90;;;;;;5048850;28;20649;-72
2022/05/31 02:31:24;;;;;;;1.40;1.30;;;12.20;99.90;;;;;;5048508;28;20200;-72
2022/05/31 02:33:50;;;;;;;1.67;1.57;;;12.20;99.90;;;;;;5031033;28;20212;-72
2022/05/31 02:36:17;;;;;;;1.20;1.20;;;12.10;99.90;;;;;;5043746;28;20365;-72
2022/05/31 02:38:44;;;;;;;1.70;1.60;;;12.00;99.90;;;;;;5048138;28;20212;-72
2022/05/31 02:41:12;;;;;;;1.60;1.50;;;12.00;99.90;;;;;;5033375;28;20729;-72
2022/05/31 02:43:38;;;;;;;2.23;1.53;;;12.10;99.90;;;;;;5028685;28;20267;-72
2022/05/31 02:46:05;;;;;;;1.80;1.70;;;12.10;99.90;;;;;;5028117;28;20743;-72
2022/05/31 02:48:32;;;;;;;1.70;1.60;;;12.10;99.90;;;;;;5043654;28;20269;-72
2022/05/31 02:50:59;;;;;;;1.60;1.50;;;12.20;99.90;;;;;;5047972;28;20209;-73
2022/05/31 02:53:25;;;;;;;1.60;1.50;;;12.20;99.90;;;;;;5047904;28;20204;-72
2022/05/31 02:55:52;;;;;;;1.50;1.40;;;12.10;99.90;;;;;;5033476;28;20232;-72
2022/05/31 02:58:21;;;;;;;1.50;1.40;;;12.10;99.90;;;;;;5028116;28;20201;-72
2022/05/31 03:00:47;;;;;;;1.63;1.53;;;12.10;99.90;;;;;;5028379;28;20311;-73
2022/05/31 03:03:14;;;;;;;1.60;1.50;;;12.10;99.90;;;;;;5033407;28;20270;-72
2022/05/31 03:05:41;;;;;;;1.67;1.57;;;12.20;99.90;;;;;;5047962;28;20214;-72
2022/05/31 03:08:08;;;;;;;1.43;1.40;;;12.20;99.90;;;;;;5047691;28;20203;-72
2022/05/31 03:10:36;;;;;;;1.50;1.40;;;12.20;99.90;;;;;;5047535;28;20694;-72
2022/05/31 03:13:03;;;;;;;1.73;1.63;;;12.20;99.90;;;;;;5047468;28;20640;-72
2022/05/31 03:15:33;;;;;;;1.60;1.50;;;12.20;99.90;;;;;;5047589;28;20747;-72
2022/05/31 03:18:04;;;;;;;1.40;1.30;;;12.20;99.90;;;;;;5029694;28;20205;-72
2022/05/31 03:20:35;;;;;;;1.50;1.40;;;12.20;99.90;;;;;;5031977;28;20265;-72
2022/05/31 03:23:04;;;;;;;1.67;1.57;;;12.20;99.90;;;;;;5047454;28;20200;-72
2022/05/31 03:25:33;;;;;;;1.83;1.47;;;12.30;99.90;;;;;;5047642;28;20216;-72
2022/05/31 03:28:02;;;;;;;1.30;1.23;;;12.30;99.90;;;;;;5042378;28;20270;-72
2022/05/31 03:30:30;;;;;;;2.10;1.43;;;12.30;99.90;;;;;;5027782;28;20212;-72
2022/05/31 03:32:58;;;;;;;1.37;1.33;;;12.20;99.90;;;;;;5027704;28;20686;-72
2022/05/31 03:35:25;;;;;;;1.40;1.30;;;12.20;99.90;;;;;;5027658;28;20205;-72
2022/05/31 03:37:52;;;;;;;1.53;1.40;;;12.20;99.90;;;;;;5045893;28;20237;-72
2022/05/31 03:43:01;;;;;;;1.70;1.60;;;12.00;99.90;;;;;;5046821;28;20204;-72
2022/05/31 03:45:33;;;;;;;1.57;1.47;;;12.00;99.90;;;;;;5047313;28;20757;-73
2022/05/31 03:48:01;;;;;;;2.43;1.47;;;12.00;99.90;;;;;;5047306;28;20215;-72
2022/05/31 03:50:28;;;;;;;1.93;1.83;;;11.90;99.90;;;;;;5040516;28;20271;-72
2022/05/31 03:52:54;;;;;;;1.43;1.43;;;11.90;99.90;;;;;;5026983;28;20667;-72
2022/05/31 03:55:21;;;;;;;2.07;1.70;;;11.80;99.90;;;;;;5027292;28;20296;-72
2022/05/31 03:57:49;;;;;;;1.90;1.70;;;11.60;99.90;;;;;;5027252;28;20209;-72
2022/05/31 04:00:16;;;;;;;1.83;1.73;;;11.50;99.90;;;;;;5027390;28;20216;-72
2022/05/31 04:02:43;;;;;;;2.47;1.70;;;11.40;99.90;;;;;;5027173;28;20205;-72
2022/05/31 04:05:11;;;;;;;2.17;1.60;;;11.60;99.90;;;;;;5027058;28;20278;-72
2022/05/31 04:07:38;;;;;;;2.63;2.20;;;11.50;99.90;;;;;;5027197;28;20221;-72
2022/05/31 04:10:07;;;;;;;1.77;1.67;;;11.40;99.90;;;;;;5026895;28;20208;-72
2022/05/31 04:12:35;;;;;;;2.40;2.20;;;11.50;99.90;;;;;;5042288;28;20312;-72
2022/05/31 04:15:01;;;;;;;2.00;1.90;;;11.40;99.90;;;;;;5046428;28;20212;-72
2022/05/31 04:17:28;;;;;;;3.00;1.90;;;11.50;99.90;;;;;;5039368;28;20240;-72
2022/05/31 04:19:55;;;;;;;2.27;1.80;;;11.60;99.90;;;;;;5045666;28;20892;-72
2022/05/31 04:22:23;;;;;;;2.03;1.80;;;11.60;99.90;;;;;;5046576;28;20200;-72
2022/05/31 04:24:53;;;;;;;2.00;1.90;;;11.60;99.90;;;;;;5046486;28;20254;-72
2022/05/31 04:27:20;;;;;;;1.73;1.63;;;11.80;99.90;;;;;;5046705;28;20657;-72
2022/05/31 04:29:47;;;;;;;1.70;1.60;;;11.70;99.90;;;;;;5046975;28;20286;-72
2022/05/31 04:32:15;;;;;;;2.17;1.90;;;11.60;99.90;;;;;;5046468;28;20204;-72
2022/05/31 04:34:42;;;;;;;3.20;2.00;;;11.70;99.90;;;;;;5046884;28;20258;-72
2022/05/31 04:37:09;;;;;;;2.03;1.70;;;11.60;99.90;;;;;;5046459;28;20231;-72
2022/05/31 04:39:37;;;;;;;2.93;1.80;;;11.70;99.90;;;;;;5046491;28;20228;-72
2022/05/31 04:42:05;;;;;;;1.80;1.70;;;11.60;99.90;;;;;;5045865;28;20281;-72
2022/05/31 04:44:31;;;;;;;1.43;1.43;;;11.60;99.90;;;;;;5046729;28;20200;-72
2022/05/31 04:46:58;;;;;;;4.67;2.00;;;11.60;99.90;;;;;;5045287;28;20208;-72
2022/05/31 04:49:24;;;;;;;1.80;1.70;;;11.50;99.90;;;;;;5046701;28;20200;-72
2022/05/31 04:51:51;;;;;;;2.67;1.90;;;11.60;99.90;;;;;;5046238;28;20345;-72
2022/05/31 04:54:18;;;;;;;2.00;1.80;;;11.60;99.90;;;;;;5046545;28;20208;-72
2022/05/31 04:56:46;;;;;;;1.70;1.60;;;11.50;99.90;;;;;;5046236;28;20616;-72
2022/05/31 04:59:13;;;;;;;2.77;2.07;;;11.50;99.90;;;;;;5046521;28;20265;-72
2022/05/31 05:01:40;;;;;;;1.90;1.80;;;11.40;99.90;;;;;;5046600;28;20216;-72
2022/05/31 05:04:06;;;;;;;2.67;1.80;;;11.40;99.90;;;;;;5046420;28;20212;-72
2022/05/31 05:06:33;;;;;;;2.40;1.87;;;11.60;99.90;;;;;;5046332;28;20254;-72
2022/05/31 05:09:00;;;;;;;1.80;1.70;;;11.70;99.90;;;;;;5045922;28;20301;-72
2022/05/31 05:11:27;;;;;;;1.70;1.53;;;11.80;99.90;;;;;;5046578;28;20244;-72
2022/05/31 05:13:57;;;;;;;1.97;1.60;;;11.90;99.90;;;;;;5046476;28;20204;-72
2022/05/31 05:16:24;;;;;;;1.87;1.60;;;11.90;99.90;;;;;;5032900;28;20236;-72
2022/05/31 05:18:51;;;;;;;1.57;1.47;;;12.00;99.90;;;;;;5044100;28;20270;-72
2022/05/31 05:21:18;;;;;;;1.90;1.80;;;11.80;99.90;;;;;;5046039;28;20232;-72
2022/05/31 05:23:45;;;;;;;1.83;1.70;;;11.90;99.90;;;;;;5046284;28;20241;-72
2022/05/31 05:26:12;;;;;;;2.60;1.87;;;11.90;99.90;;;;;;5048860;28;20701;-72
2022/05/31 05:31:27;;;;;;;2.93;1.67;;;11.80;99.90;;;;;;5029637;28;20378;-72
2022/05/31 05:33:54;;;;;;;2.13;1.40;;;11.80;99.90;;;;;;5029998;28;20227;-72
2022/05/31 05:36:21;;;;;;;2.47;1.60;;;11.90;99.90;;;;;;5029877;28;20283;-72
2022/05/31 05:38:49;;;;;;;2.83;1.43;;;11.90;99.90;;;;;;5029831;28;20258;-72
2022/05/31 05:41:16;;;;;;;1.43;1.30;;;12.00;99.90;;;;;;5029471;28;20245;-72
2022/05/31 05:43:44;;;;;;;1.50;1.40;;;12.10;99.90;;;;;;5036730;28;20259;-72
2022/05/31 05:46:13;;;;;;;1.60;1.50;;;12.10;99.90;;;;;;5049365;28;20211;-72
2022/05/31 05:48:42;;;;;;;1.70;1.60;;;12.10;99.90;;;;;;5049548;28;20238;-72
2022/05/31 05:51:14;;;;;;;4.07;1.60;;;12.10;99.90;;;;;;5034785;28;20255;-72
2022/05/31 05:53:41;;;;;;;2.30;1.67;;;12.10;99.90;;;;;;5029158;28;20805;-72
2022/05/31 05:56:08;;;;;;;1.83;1.67;;;12.10;99.90;;;;;;5029383;28;20292;-72
2022/05/31 05:58:35;;;;;;;2.33;1.30;;;12.20;99.90;;;;;;5029232;28;20734;-72
2022/05/31 06:01:07;;;;;;;2.40;1.53;;;12.30;99.90;;;;;;5029222;28;20209;-72
2022/05/31 06:03:38;;;;;;;1.80;1.60;;;12.30;99.90;;;;;;5029284;28;20197;-72
2022/05/31 06:06:08;;;;;;;1.60;1.47;;;12.40;99.90;;;;;;5029135;28;20212;-72
2022/05/31 06:08:39;;;;;;;2.00;1.60;;;12.50;99.90;;;;;;5029039;28;20201;-72
2022/05/31 06:11:09;;;;;;;2.07;1.87;;;12.50;99.90;;;;;;5030512;28;20242;-72
2022/05/31 06:13:40;;;;;;;1.57;1.47;;;12.60;99.90;;;;;;5049143;28;20258;-72
2022/05/31 06:16:09;;;;;;;2.40;1.60;;;12.60;99.90;;;;;;5044569;28;20200;-72
2022/05/31 06:18:40;;;;;;;1.83;1.70;;;12.70;99.90;;;;;;5028997;28;20209;-72
2022/05/31 06:21:08;;;;;;;3.63;2.13;;;12.70;99.90;;;;;;5037949;28;20937;-72
2022/05/31 06:23:36;;;;;;;2.67;1.90;;;12.70;99.90;;;;;;5048518;28;20204;-72
2022/05/31 06:26:06;;;;;;;4.20;1.90;;;12.80;99.90;;;;;;5048449;28;20208;-72
2022/05/31 06:28:33;;;;;;;2.20;2.00;;;12.80;99.90;;;;;;5048257;28;20667;-72
2022/05/31 06:30:59;;;;;;;2.63;1.80;;;12.80;99.90;;;;;;5048308;28;20208;-72
2022/05/31 06:33:26;;;;;;;3.43;1.80;;;12.90;99.90;;;;;;5048325;28;20234;-72
2022/05/31 06:35:53;;;;;;;1.67;1.40;;;12.90;99.90;;;;;;5048256;28;20204;-72
2022/05/31 06:38:21;;;;;;;2.23;1.73;;;12.90;99.90;;;;;;5046106;28;20250;-72
2022/05/31 06:40:47;;;;;;;3.03;1.70;;;12.90;99.90;;;;;;5047902;28;20258;-72
2022/05/31 06:43:14;;;;;;;1.70;1.60;;;13.00;99.90;;;;;;5028094;28;20205;-72
2022/05/31 06:45:40;;;;;;;2.53;1.67;;;13.00;99.90;;;;;;5027937;28;20737;-72
2022/05/31 06:48:07;;;;;;;2.47;1.40;;;13.00;99.90;;;;;;5040003;28;20270;-72
2022/05/31 06:50:35;;;;;;;3.07;1.97;;;13.00;99.90;;;;;;5032350;28;20197;-72
2022/05/31 06:58:31;;;;;;;2.27;1.70;;;13.10;99.90;;;;;;5027992;28;20282;-72
2022/05/31 07:01:05;;;;;;;2.97;1.43;;;13.20;99.90;;;;;;5027573;28;20663;-72
2022/05/31 07:03:31;;;;;;;1.60;1.33;;;13.20;99.90;;;;;;5028141;28;20234;-73
2022/05/31 07:05:59;;;;;;;1.30;1.03;;;13.20;99.90;;;;;;5040075;28;20948;-72
2022/05/31 07:08:26;;;;;;;2.87;1.50;;;13.30;99.90;;;;;;5047465;28;20926;-72
2022/05/31 07:10:55;;;;;;;1.47;1.17;;;13.30;99.90;;;;;;5036266;28;20607;-72
2022/05/31 07:13:22;;;;;;;2.50;1.40;;;13.30;99.90;;;;;;5035734;28;20212;-72
2022/05/31 07:15:51;;;;;;;2.30;1.30;;;13.40;99.90;;;;;;5047656;28;20541;-73
2022/05/31 07:18:17;;;;;;;2.80;1.33;;;13.40;99.90;;;;;;5040587;28;20706;-72
2022/05/31 07:20:44;;;;;;;3.57;1.23;;;13.50;99.90;;;;;;5047554;28;20196;-73
2022/05/31 07:23:11;;;;;;;1.70;1.13;;;13.50;99.90;;;;;;5034286;28;20442;-72
2022/05/31 07:25:38;;;;;;;1.10;1.00;;;13.50;99.90;;;;;;5028929;28;20200;-72
2022/05/31 07:28:06;;;;;;;2.77;1.23;;;13.60;99.90;;;;;;5027363;28;20209;-72
2022/05/31 07:30:34;;;;;;;1.73;1.23;;;13.70;99.90;;;;;;5027535;28;20205;-72
2022/05/31 07:33:00;;;;;;;1.10;1.00;;;13.70;99.90;;;;;;5027611;28;20243;-73
2022/05/31 07:35:28;;;;;;;2.80;1.60;;;13.70;99.90;;;;;;5034016;28;20212;-72
2022/05/31 07:37:54;;;;;;;3.57;1.50;;;13.80;99.90;;;;;;5047066;28;20232;-72
2022/05/31 07:40:21;;;;;;;1.63;1.17;;;13.80;99.90;;;;;;5047345;28;20224;-72
2022/05/31 07:42:48;;;;;;;1.93;0.80;;;13.90;99.90;;;;;;5027998;28;20652;-72
2022/05/31 07:45:16;;;;;;;2.00;0.90;;;13.90;99.90;;;;;;5027419;28;20236;-72
2022/05/31 07:47:43;;;;;;;1.77;1.10;;;13.90;99.90;;;;;;5037476;28;20270;-72
2022/05/31 07:50:10;;;;;;;1.13;1.03;;;13.90;99.90;;;;;;5045069;28;20670;-72
2022/05/31 07:52:37;;;;;;;2.30;1.17;;;13.90;99.90;;;;;;5027248;28;20205;-73
2022/05/31 07:55:05;;;;;;;2.20;1.30;;;13.90;99.90;;;;;;5026783;28;20292;-72
2022/05/31 08:00:17;;;;;;;4.70;1.70;;;13.80;99.90;;;;;;5026780;28;20596;-72
2022/05/31 08:02:44;;;;;;;1.60;1.50;;;13.80;99.90;;;;;;5027052;28;20245;-73
2022/05/31 08:05:11;;;;;;;1.47;1.30;;;13.80;99.90;;;;;;5026592;28;20739;-72
2022/05/31 08:07:39;;;;;;;1.63;1.20;;;13.90;99.90;;;;;;5026863;28;20270;-72
2022/05/31 08:10:06;;;;;;;1.90;1.37;;;13.90;99.90;;;;;;5038649;28;20232;-72
2022/05/31 08:12:33;;;;;;;2.40;1.13;;;13.90;99.90;;;;;;5046750;28;20208;-73
2022/05/31 08:15:00;;;;;;;2.27;1.27;;;13.90;99.90;;;;;;5047001;28;20258;-72
2022/05/31 08:17:28;;;;;;;1.80;1.37;;;13.90;99.90;;;;;;5034595;28;20225;-72
2022/05/31 08:19:56;;;;;;;3.00;1.07;;;14.00;99.90;;;;;;5026825;28;20208;-73
2022/05/31 08:22:22;;;;;;;1.90;1.30;;;14.00;99.90;;;;;;5046446;28;20209;-72
2022/05/31 08:24:49;;;;;;;1.53;1.20;;;14.00;99.90;;;;;;5046459;28;20235;-72
2022/05/31 08:27:16;;;;;;;1.97;1.40;;;14.10;99.90;;;;;;5046467;28;20207;-72
2022/05/31 08:29:46;;;;;;;1.73;1.37;;;14.10;99.90;;;;;;5036785;28;21026;-72
2022/05/31 08:32:13;;;;;;;1.33;1.23;;;14.20;99.90;;;;;;5035383;28;20338;-72
2022/05/31 08:34:40;;;;;;;2.77;1.20;;;14.20;99.90;;;;;;5046380;28;20655;-72
2022/05/31 08:37:07;;;;;;;2.10;1.10;;;14.20;99.90;;;;;;5046479;28;20232;-73
2022/05/31 08:39:34;;;;;;;1.23;1.00;;;14.30;99.90;;;;;;5046432;28;20282;-72
2022/05/31 08:42:06;;;;;;;2.57;1.30;;;14.30;99.90;;;;;;5045986;28;20232;-72
2022/05/31 08:44:43;;;;;;;1.90;1.20;;;14.40;99.90;;;;;;5046570;28;20222;-73
2022/05/31 08:47:19;;;;;;;1.40;1.00;;;14.50;99.90;;;;;;5031093;28;20562;-73
2022/05/31 08:52:45;;;;;;;2.07;1.17;;;14.60;99.90;;;;;;5031309;28;20196;-72
2022/05/31 08:58:09;;;;;;;1.40;1.00;;;14.70;99.90;;;;;;5046225;28;20616;-72
2022/05/31 09:00:40;;;;;;;0.90;0.90;;;14.80;99.90;;;;;;5048768;28;20243;-72
2022/05/31 09:03:11;;;;;;;3.73;1.20;;;14.80;99.90;;;;;;5050159;28;20309;-72
2022/05/31 09:05:46;;;;;;;1.93;1.00;;;14.90;99.90;;;;;;5050218;28;20251;-72
2022/05/31 09:08:18;;;;;;;1.80;1.13;;;14.90;99.90;;;;;;5049392;28;20246;-72
2022/05/31 09:10:51;;;;;;;0.93;0.93;;;15.00;99.90;;;;;;5050228;28;20291;-72
2022/05/31 09:13:23;;;;;;;2.50;1.37;;;15.00;99.90;;;;;;5050311;28;20204;-72
2022/05/31 09:15:54;;;;;;;2.10;1.07;;;15.00;99.90;;;;;;5049832;28;20257;-72
2022/05/31 09:18:31;;;;;;;2.50;1.50;;;15.10;99.90;;;;;;5050114;28;20228;-72
2022/05/31 09:21:04;;;;;;;1.67;1.20;;;15.20;99.90;;;;;;5050270;28;20215;-73
2022/05/31 09:23:35;;;;;;;3.80;1.20;;;15.20;99.90;;;;;;5050127;28;20196;-72
2022/05/31 09:26:17;;;;;;;1.97;1.10;;;15.30;99.90;;;;;;5049709;28;20196;-72
2022/05/31 09:28:52;;;;;;;2.33;1.10;;;15.40;99.90;;;;;;5049961;28;20277;-72
2022/05/31 09:31:29;;;;;;;1.50;1.10;;;15.40;99.90;;;;;;5049821;28;20195;-73
2022/05/31 09:34:19;;;;;;;9.57;1.67;;;15.50;99.90;;;;;;5049511;28;20286;-72
2022/05/31 09:36:56;;;;;;;1.90;1.10;;;15.60;99.90;;;;;;5048855;28;20614;-72
2022/05/31 09:39:31;;;;;;;2.40;1.17;;;15.80;99.90;;;;;;5049509;28;20247;-73
2022/05/31 09:42:02;;;;;;;1.40;1.13;;;15.90;99.90;;;;;;5049231;28;20289;-72
2022/05/31 09:44:36;;;;;;;1.17;1.00;;;16.00;99.90;;;;;;5049750;28;20192;-73
2022/05/31 09:47:06;;;;;;;1.80;0.80;;;16.10;99.90;;;;;;5049267;28;20311;-73
2022/05/31 09:49:36;;;;;;;1.03;0.97;;;16.10;99.90;;;;;;5038544;28;20220;-73
2022/05/31 09:52:08;;;;;;;1.30;1.07;;;16.20;99.90;;;;;;5028854;28;20197;-72
2022/05/31 09:57:55;;;;;;;2.80;1.40;;;16.30;99.90;;;;;;5035341;28;20246;-73
2022/05/31 10:00:22;;;;;;;3.17;1.17;;;16.30;99.90;;;;;;5049419;28;20315;-73
2022/05/31 10:03:10;;;;;;;2.47;1.20;;;16.40;99.90;;;;;;5035165;28;20213;-73
2022/05/31 10:05:38;;;;;;;1.50;1.00;;;16.40;99.90;;;;;;5041914;28;20196;-72
2022/05/31 10:08:15;;;;;;;2.50;1.40;;;16.50;99.90;;;;;;5048237;28;20626;-73
2022/05/31 10:10:46;;;;;;;3.37;1.37;;;16.60;99.90;;;;;;5048813;28;20192;-73
2022/05/31 10:13:13;;;;;;;1.40;1.00;;;16.60;99.90;;;;;;5047764;28;20710;-73
2022/05/31 10:15:51;;;;;;;3.20;1.30;;;16.70;99.90;;;;;;5048811;28;20204;-72
2022/05/31 10:18:30;;;;;;;2.03;1.37;;;16.80;99.90;;;;;;5028753;28;20256;-72
2022/05/31 10:20:58;;;;;;;1.27;1.10;;;16.90;99.90;;;;;;5036510;28;20266;-73
2022/05/31 10:23:38;;;;;;;1.60;1.20;;;16.90;99.90;;;;;;5048162;28;20211;-73
2022/05/31 10:26:05;;;;;;;3.10;1.20;;;17.00;99.50;;;;;;5028887;28;20193;-73
2022/05/31 10:28:37;;;;;;;2.90;1.27;;;17.00;99.40;;;;;;5028680;28;20209;-73
2022/05/31 10:31:16;;;;;;;6.13;3.80;;;17.20;99.50;;;;;;5028509;28;20201;-72
2022/05/31 10:33:52;;;;;;;2.10;1.90;;;17.30;99.60;;;;;;5028757;28;20208;-73
2022/05/31 10:36:21;;;;;;;1.53;1.10;;;17.30;99.40;;;;;;5029984;28;20610;-73
2022/05/31 10:38:50;;;;;;;1.63;1.00;;;17.40;99.30;;;;;;5027628;28;20718;-73
2022/05/31 10:41:24;;;;;;;0.93;0.93;;;17.50;99.20;;;;;;5028432;28;20241;-73
2022/05/31 10:43:53;;;;;;;1.07;0.97;;;17.60;99.50;;;;;;5028445;28;20197;-73
2022/05/31 10:46:27;;;;;;;1.20;1.10;;;17.70;99.10;;;;;;5028058;28;20939;-73
2022/05/31 10:48:55;;;;;;;0.97;0.93;;;17.70;98.60;;;;;;5027793;28;20569;-73
2022/05/31 10:51:34;;;;;;;1.67;1.10;;;17.80;98.50;;;;;;5028408;28;20212;-74
2022/05/31 10:54:11;;;;;;;2.07;1.10;;;17.90;98.60;;;;;;5027999;28;20205;-73
2022/05/31 10:56:46;;;;;;;1.23;1.17;;;18.00;98.20;;;;;;5028322;28;20185;-73
2022/05/31 10:59:18;;;;;;;1.43;1.10;;;18.00;97.90;;;;;;5037151;28;20240;-73
2022/05/31 11:02:09;;;;;;;1.03;1.03;;;18.10;97.50;;;;;;5028243;28;20219;-73
2022/05/31 11:04:54;;;;;;;1.73;1.00;;;18.10;97.90;;;;;;5028086;28;20208;-73
2022/05/31 11:07:30;;;;;;;1.07;0.90;;;18.20;97.70;;;;;;5028112;28;20235;-73
2022/05/31 11:13:07;;;;;;;1.00;0.90;;;18.40;97.90;;;;;;5029496;28;20204;-73
2022/05/31 11:15:45;;;;;;;1.77;1.30;;;18.40;97.10;;;;;;5028017;28;20247;-73
2022/05/31 11:18:37;;;;;;;2.37;1.20;;;18.40;97.00;;;;;;5039845;28;20733;-73
2022/05/31 11:21:15;;;;;;;1.73;1.20;;;18.60;97.40;;;;;;5047549;28;20709;-74
2022/05/31 11:23:52;;;;;;;1.77;1.40;;;18.70;96.80;;;;;;5027501;28;20204;-74
2022/05/31 11:26:43;;;;;;;2.20;1.30;;;18.70;96.70;;;;;;5027970;28;20223;-74
2022/05/31 11:29:40;;;;;;;1.17;0.87;;;18.90;96.10;;;;;;5027495;28;20193;-73
2022/05/31 11:32:13;;;;;;;0.97;0.97;;;19.00;96.30;;;;;;5027216;28;20197;-74
2022/05/31 11:34:54;;;;;;;1.53;1.10;;;19.10;95.70;;;;;;5027703;28;20196;-74
2022/05/31 11:37:43;;;;;;;1.23;1.13;;;19.30;95.40;;;;;;5027266;28;20200;-74
2022/05/31 11:40:35;;;;;;;0.93;0.83;;;19.30;95.00;;;;;;5028196;28;20278;-73
2022/05/31 11:43:24;;;;;;;2.23;1.17;;;19.40;94.80;;;;;;5026925;28;20207;-74
2022/05/31 11:45:58;;;;;;;2.23;0.97;;;19.50;94.50;;;;;;5028382;28;20215;-73
2022/05/31 11:48:44;;;;;;;2.10;1.53;;;19.50;94.40;;;;;;5037445;28;20212;-73
2022/05/31 11:51:20;;;;;;;3.57;2.03;;;19.50;95.00;;;;;;5026774;28;20663;-73
2022/05/31 11:54:09;;;;;;;1.20;1.10;;;19.50;94.50;;;;;;5026979;28;20197;-73
2022/05/31 11:56:45;;;;;;;1.30;1.20;;;19.60;95.00;;;;;;5046199;28;20278;-73
2022/05/31 11:59:18;;;;;;;2.47;1.50;;;19.90;95.50;;;;;;5046592;28;20257;-73
2022/05/31 12:01:50;;;;;;;1.07;1.03;;;19.90;94.30;;;;;;5037303;28;20242;-73
2022/05/31 12:04:22;;;;;;;1.10;1.00;;;20.00;93.90;;;;;;5027187;28;20197;-73
2022/05/31 12:06:54;;;;;;;1.63;1.20;;;20.20;94.10;;;;;;5026918;28;20201;-74
2022/05/31 12:09:30;;;;;;;1.93;1.20;;;20.20;93.60;;;;;;5026915;28;20197;-74
2022/05/31 12:12:01;;;;;;;1.43;1.10;;;20.30;93.20;;;;;;5026678;28;20192;-73
2022/05/31 12:14:31;;;;;;;1.33;1.17;;;20.30;93.00;;;;;;5026535;28;20644;-73
2022/05/31 12:16:59;;;;;;;1.23;1.10;;;20.30;92.50;;;;;;5035149;28;20277;-73
2022/05/31 12:19:33;;;;;;;1.30;1.10;;;20.10;92.50;;;;;;5046855;28;20273;-73
2022/05/31 12:22:08;;;;;;;3.13;1.37;;;20.10;93.10;;;;;;5030009;28;20197;-73
2022/05/31 12:24:41;;;;;;;1.70;0.97;;;20.00;93.00;;;;;;5027906;28;20200;-73
2022/05/31 12:27:15;;;;;;;1.90;1.10;;;20.10;93.00;;;;;;5046262;28;20662;-73
2022/05/31 12:29:51;;;;;;;2.20;1.20;;;20.20;93.10;;;;;;5046746;28;20196;-73
2022/05/31 12:32:30;;;;;;;2.17;1.10;;;20.20;93.00;;;;;;5046714;28;20246;-73
2022/05/31 12:34:58;;;;;;;1.17;1.10;;;20.50;93.20;;;;;;5047573;28;20192;-74
2022/05/31 12:37:26;;;;;;;1.33;1.20;;;20.70;92.70;;;;;;5049591;28;20780;-73
2022/05/31 12:40:25;;;;;;;1.03;1.03;;;20.80;92.60;;;;;;5050000;28;20675;-73
2022/05/31 12:42:52;;;;;;;1.93;1.23;;;21.00;92.60;;;;;;5050092;28;20235;-73
2022/05/31 12:45:24;;;;;;;1.40;1.30;;;20.90;92.00;;;;;;5050512;28;20208;-73
2022/05/31 12:47:56;;;;;;;1.83;1.50;;;20.80;92.20;;;;;;5050496;28;20294;-73
2022/05/31 12:50:47;;;;;;;1.40;1.30;;;20.80;92.30;;;;;;5049839;28;20208;-73
2022/05/31 12:53:21;;;;;;;1.90;1.07;;;20.70;92.70;;;;;;5050157;28;20204;-73
2022/05/31 12:55:57;;;;;;;2.10;1.10;;;20.60;92.30;;;;;;5050392;28;20196;-72
2022/05/31 12:58:36;;;;;;;1.33;1.00;;;20.30;91.90;;;;;;5050472;28;20297;-72
2022/05/31 13:01:27;;;;;;;2.20;1.13;;;20.00;92.50;;;;;;5047345;28;20211;-73
2022/05/31 13:03:57;;;;;;;1.60;1.50;;;20.00;92.70;;;;;;5029904;28;21061;-72
2022/05/31 13:06:35;;;;;;;1.73;0.90;;;20.00;92.60;;;;;;5044353;28;20200;-73
2022/05/31 13:09:04;;;;;;;1.07;1.07;;;20.20;92.60;;;;;;5049879;28;20747;-73
2022/05/31 13:20:11;;;;;;;1.20;1.10;;;21.10;91.50;;;;;;5031666;28;20238;-73
2022/05/31 13:22:42;;;;;;;2.80;1.53;;;20.90;91.90;;;;;;5049588;28;20262;-73
2022/05/31 13:25:17;;;;;;;1.90;1.20;;;20.70;91.60;;;;;;5049810;28;20250;-73
2022/05/31 13:27:51;;;;;;;3.70;1.40;;;20.40;91.80;;;;;;5049512;28;20646;-73
2022/05/31 13:30:20;;;;;;;1.87;1.30;;;20.20;92.20;;;;;;5049824;28;20977;-73
2022/05/31 13:32:47;;;;;;;1.23;1.20;;;20.10;92.40;;;;;;5049870;28;20254;-73
2022/05/31 13:35:16;;;;;;;1.23;1.13;;;20.00;92.90;;;;;;5042344;28;20643;-73
2022/05/31 13:37:58;;;;;;;3.33;1.57;;;19.90;92.90;;;;;;5029371;28;20263;-73
2022/05/31 13:40:32;;;;;;;1.23;1.13;;;19.80;93.00;;;;;;5029514;28;20765;-73
2022/05/31 13:43:00;;;;;;;3.17;1.53;;;19.70;93.30;;;;;;5031826;28;20288;-73